createdAt,value
2022-11-28T00:01:21.248Z,3.80
2022-11-28T00:03:52.642Z,3.80
2022-11-28T00:06:22.362Z,3.70
2022-11-28T00:08:50.532Z,3.80
2022-11-28T00:11:19.271Z,3.70
2022-11-28T00:13:47.691Z,3.70
2022-11-28T00:16:18.369Z,3.70
2022-11-28T00:18:46.451Z,3.70
2022-11-28T00:21:15.995Z,3.60
2022-11-28T00:23:46.835Z,3.60
2022-11-28T00:26:16.522Z,3.50
2022-11-28T00:28:44.682Z,3.50
2022-11-28T00:31:14.907Z,3.50
2022-11-28T00:33:43.058Z,3.40
2022-11-28T00:36:11.974Z,3.40
2022-11-28T00:38:39.854Z,3.40
2022-11-28T00:41:11.139Z,3.40
2022-11-28T00:43:39.369Z,3.40
2022-11-28T00:46:07.546Z,3.40
2022-11-28T00:48:35.888Z,3.50
2022-11-28T00:51:08.163Z,3.50
2022-11-28T00:53:36.342Z,3.50
2022-11-28T00:56:05.901Z,3.50
2022-11-28T00:58:36.080Z,3.50
2022-11-28T01:01:09.187Z,3.50
2022-11-28T01:03:37.112Z,3.50
2022-11-28T01:06:05.605Z,3.60
2022-11-28T01:08:33.753Z,3.60
2022-11-28T01:11:01.825Z,3.60
2022-11-28T01:13:29.917Z,3.60
2022-11-28T01:15:59.699Z,3.60
2022-11-28T01:18:27.621Z,3.50
2022-11-28T01:20:55.519Z,3.50
2022-11-28T01:23:23.401Z,3.50
2022-11-28T01:25:51.457Z,3.50
2022-11-28T01:28:19.367Z,3.50
2022-11-28T01:30:47.277Z,3.50
2022-11-28T01:33:16.657Z,3.50
2022-11-28T01:35:54.415Z,3.50
2022-11-28T01:38:22.633Z,3.50
2022-11-28T01:40:51.084Z,3.60
2022-11-28T01:43:19.506Z,3.60
2022-11-28T01:45:47.681Z,3.60
2022-11-28T01:48:21.700Z,3.50
2022-11-28T01:50:51.028Z,3.60
2022-11-28T01:53:19.074Z,3.50
2022-11-28T01:55:53.936Z,3.60
2022-11-28T01:58:22.022Z,3.60
2022-11-28T02:00:50.491Z,3.60
2022-11-28T02:03:24.050Z,3.40
2022-11-28T02:05:52.738Z,3.30
2022-11-28T02:08:20.730Z,3.30
2022-11-28T02:11:04.201Z,3.30
2022-11-28T02:13:44.757Z,3.40
2022-11-28T02:16:38.994Z,3.40
2022-11-28T02:19:34.472Z,3.40
2022-11-28T02:22:07.446Z,3.40
2022-11-28T02:25:13.777Z,3.40
2022-11-28T02:28:07.766Z,3.40
2022-11-28T02:30:48.077Z,3.40
2022-11-28T02:33:21.978Z,3.40
2022-11-28T02:36:00.197Z,3.40
2022-11-28T02:38:40.121Z,3.40
2022-11-28T02:41:16.011Z,3.40
2022-11-28T02:43:52.065Z,3.40
2022-11-28T02:46:27.861Z,3.40
2022-11-28T02:49:01.033Z,3.30
2022-11-28T02:51:34.642Z,3.30
2022-11-28T02:54:04.749Z,3.30
2022-11-28T02:56:32.652Z,3.30
2022-11-28T02:59:00.540Z,3.30
2022-11-28T03:01:32.747Z,3.20
2022-11-28T03:04:13.785Z,3.20
2022-11-28T03:06:50.149Z,3.20
2022-11-28T03:09:36.203Z,3.20
2022-11-28T03:12:13.369Z,3.20
2022-11-28T03:14:50.977Z,3.20
2022-11-28T03:17:34.877Z,3.30
2022-11-28T03:20:16.013Z,3.30
2022-11-28T03:22:56.330Z,3.30
2022-11-28T03:25:29.603Z,3.30
2022-11-28T03:28:03.253Z,3.30
2022-11-28T03:30:37.592Z,3.30
2022-11-28T03:33:06.487Z,3.20
2022-11-28T03:35:40.441Z,3.30
2022-11-28T03:38:12.252Z,3.30
2022-11-28T03:40:43.671Z,3.20
2022-11-28T03:43:17.032Z,3.30
2022-11-28T03:45:48.212Z,3.30
2022-11-28T03:48:21.684Z,3.30
2022-11-28T03:50:56.700Z,3.20
2022-11-28T03:53:36.133Z,3.20
2022-11-28T03:56:10.323Z,3.10
2022-11-28T03:58:44.778Z,2.90
2022-11-28T04:01:20.673Z,2.80
2022-11-28T04:03:55.812Z,2.80
2022-11-28T04:06:29.433Z,2.90
2022-11-28T04:09:02.344Z,2.90
2022-11-28T04:11:34.844Z,3.00
2022-11-28T04:14:10.687Z,3.00
2022-11-28T04:16:47.232Z,3.00
2022-11-28T04:19:29.271Z,3.10
2022-11-28T04:22:02.975Z,3.10
2022-11-28T04:24:38.119Z,3.10
2022-11-28T04:27:09.623Z,3.10
2022-11-28T04:29:43.047Z,3.10
2022-11-28T04:32:12.587Z,3.00
2022-11-28T04:34:43.548Z,3.00
2022-11-28T04:37:15.287Z,3.00
2022-11-28T04:39:45.613Z,2.90
2022-11-28T04:42:18.114Z,2.90
2022-11-28T04:44:51.741Z,2.90
2022-11-28T04:47:20.407Z,2.90
2022-11-28T04:49:48.336Z,2.90
2022-11-28T04:52:21.915Z,2.90
2022-11-28T04:54:56.587Z,2.90
2022-11-28T04:57:31.180Z,2.90
2022-11-28T04:59:59.799Z,2.90
2022-11-28T05:02:29.667Z,2.90
2022-11-28T05:04:58.311Z,2.90
2022-11-28T05:07:27.665Z,2.80
2022-11-28T05:09:57.686Z,2.80
2022-11-28T05:12:25.611Z,2.70
2022-11-28T05:14:53.493Z,2.50
2022-11-28T05:17:21.397Z,2.40
2022-11-28T05:19:49.283Z,2.40
2022-11-28T05:22:17.257Z,2.40
2022-11-28T05:24:46.705Z,2.40
2022-11-28T05:27:14.774Z,2.50
2022-11-28T05:29:49.426Z,2.50
2022-11-28T05:32:19.944Z,2.50
2022-11-28T05:34:47.827Z,2.50
2022-11-28T05:37:16.730Z,2.50
2022-11-28T05:39:46.016Z,2.50
2022-11-28T05:42:13.924Z,2.50
2022-11-28T05:44:41.806Z,2.50
2022-11-28T05:47:09.770Z,2.50
2022-11-28T05:49:37.700Z,2.50
2022-11-28T05:52:05.684Z,2.50
2022-11-28T05:54:33.598Z,2.40
2022-11-28T05:57:02.970Z,2.30
2022-11-28T05:59:30.858Z,2.40
2022-11-28T06:01:58.872Z,2.40
2022-11-28T06:04:26.887Z,2.50
2022-11-28T06:06:54.825Z,2.50
2022-11-28T06:09:25.807Z,2.60
2022-11-28T06:11:54.354Z,2.60
2022-11-28T06:14:23.633Z,2.60
2022-11-28T06:16:51.585Z,2.60
2022-11-28T06:19:19.670Z,2.60
2022-11-28T06:21:50.151Z,2.60
2022-11-28T06:24:18.289Z,2.60
2022-11-28T06:26:46.569Z,2.60
2022-11-28T06:29:14.517Z,2.60
2022-11-28T06:31:43.834Z,2.50
2022-11-28T06:34:12.800Z,2.50
2022-11-28T06:36:40.781Z,2.60
2022-11-28T06:39:08.712Z,2.50
2022-11-28T06:41:36.624Z,2.50
2022-11-28T06:44:04.781Z,2.50
2022-11-28T06:46:32.736Z,2.40
2022-11-28T06:49:02.016Z,2.40
2022-11-28T06:51:29.933Z,2.40
2022-11-28T06:53:58.017Z,2.40
2022-11-28T06:56:26.003Z,2.40
2022-11-28T06:58:58.107Z,2.20
2022-11-28T07:01:27.737Z,2.30
2022-11-28T07:03:55.919Z,2.30
2022-11-28T07:06:26.864Z,2.30
2022-11-28T07:08:56.133Z,2.30
2022-11-28T07:11:25.692Z,2.40
2022-11-28T07:13:54.877Z,2.40
2022-11-28T07:16:24.320Z,2.50
2022-11-28T07:18:52.949Z,2.50
2022-11-28T07:21:21.542Z,2.50
2022-11-28T07:23:51.132Z,2.60
2022-11-28T07:26:23.683Z,2.50
2022-11-28T07:28:52.758Z,2.50
2022-11-28T07:31:22.392Z,2.50
2022-11-28T07:33:52.060Z,2.50
2022-11-28T07:36:22.404Z,2.50
2022-11-28T07:38:53.203Z,2.60
2022-11-28T07:41:26.199Z,2.60
2022-11-28T07:43:56.297Z,2.60
2022-11-28T07:46:24.548Z,2.60
2022-11-28T07:48:53.087Z,2.60
2022-11-28T07:51:22.829Z,2.60
2022-11-28T07:53:52.608Z,2.60
2022-11-28T07:56:25.616Z,2.60
2022-11-28T07:58:53.735Z,2.60
2022-11-28T08:01:23.392Z,2.60
2022-11-28T08:03:52.069Z,2.60
2022-11-28T08:06:22.491Z,2.60
2022-11-28T08:08:52.691Z,2.70
2022-11-28T08:11:22.679Z,2.70
2022-11-28T08:13:51.859Z,2.70
2022-11-28T08:16:23.543Z,2.80
2022-11-28T08:18:53.060Z,2.80
2022-11-28T08:21:23.363Z,2.70
2022-11-28T08:23:53.552Z,2.50
2022-11-28T08:26:28.792Z,2.40
2022-11-28T08:28:58.750Z,2.30
2022-11-28T08:31:29.917Z,2.20
2022-11-28T08:33:59.797Z,2.20
2022-11-28T08:36:29.351Z,2.30
2022-11-28T08:39:30.366Z,2.40
2022-11-28T08:41:48.417Z,2.60
2022-11-28T08:44:16.436Z,2.70
2022-11-28T08:46:44.356Z,2.80
2022-11-28T08:49:12.258Z,2.90
2022-11-28T08:51:40.136Z,3.00
2022-11-28T08:54:09.556Z,3.10
2022-11-28T08:56:37.440Z,3.00
2022-11-28T08:59:07.098Z,3.00
2022-11-28T09:01:35.061Z,3.00
2022-11-28T09:04:03.114Z,3.00
2022-11-28T09:06:31.062Z,3.10
2022-11-28T09:08:59.315Z,3.20
2022-11-28T09:11:28.549Z,3.20
2022-11-28T09:13:56.764Z,3.20
2022-11-28T09:16:24.686Z,3.30
2022-11-28T09:18:52.715Z,3.30
2022-11-28T09:21:20.655Z,3.40
2022-11-28T09:23:48.563Z,3.30
2022-11-28T09:26:18.106Z,3.40
2022-11-28T09:28:48.426Z,3.40
2022-11-28T09:31:18.609Z,3.50
2022-11-28T09:33:48.308Z,3.50
2022-11-28T09:36:18.759Z,3.50
2022-11-28T09:38:46.997Z,3.50
2022-11-28T09:41:45.730Z,3.50
2022-11-28T09:44:22.927Z,3.50
2022-11-28T09:46:53.721Z,3.60
2022-11-28T09:49:36.771Z,3.70
2022-11-28T09:52:22.441Z,3.80
2022-11-28T09:54:57.917Z,3.90
2022-11-28T09:57:33.879Z,4.00
2022-11-28T10:00:03.788Z,4.00
2022-11-28T10:02:39.244Z,4.10
2022-11-28T10:05:16.101Z,4.20
2022-11-28T10:07:55.283Z,4.20
2022-11-28T10:10:30.123Z,4.20
2022-11-28T10:13:04.333Z,4.30
2022-11-28T10:15:43.820Z,4.40
2022-11-28T10:18:27.883Z,4.50
2022-11-28T10:21:00.235Z,4.60
2022-11-28T10:23:30.851Z,4.70
2022-11-28T10:26:02.703Z,4.70
2022-11-28T10:28:35.232Z,5.00
2022-11-28T10:31:09.051Z,5.30
2022-11-28T10:33:43.230Z,5.50
2022-11-28T10:36:17.476Z,5.70
2022-11-28T10:38:45.368Z,5.90
2022-11-28T10:41:18.314Z,6.00
2022-11-28T10:43:50.495Z,6.20
2022-11-28T10:46:40.811Z,6.50
2022-11-28T10:49:25.536Z,6.80
2022-11-28T10:52:02.573Z,7.00
2022-11-28T10:54:46.645Z,7.20
2022-11-28T10:57:22.168Z,7.40
2022-11-28T11:00:02.603Z,7.50
2022-11-28T11:02:38.294Z,7.70
2022-11-28T11:05:08.000Z,7.90
2022-11-28T11:07:36.018Z,8.10
2022-11-28T11:10:15.515Z,8.30
2022-11-28T11:12:44.145Z,8.50
2022-11-28T11:15:25.542Z,8.60
2022-11-28T11:17:54.798Z,8.70
2022-11-28T11:20:38.003Z,8.90
2022-11-28T11:23:16.464Z,8.90
2022-11-28T11:25:50.941Z,9.00
2022-11-28T11:28:42.624Z,9.10
2022-11-28T11:31:26.227Z,9.20
2022-11-28T11:34:15.865Z,9.30
2022-11-28T11:36:43.890Z,9.30
2022-11-28T11:39:23.680Z,9.00
2022-11-28T11:42:10.206Z,8.70
2022-11-28T11:44:38.430Z,8.30
2022-11-28T11:47:07.934Z,7.90
2022-11-28T11:49:39.029Z,7.70
2022-11-28T11:52:15.039Z,7.50
2022-11-28T11:54:56.334Z,7.20
2022-11-28T11:57:34.745Z,7.20
2022-11-28T12:00:07.992Z,7.20
2022-11-28T12:02:40.935Z,7.10
2022-11-28T12:05:14.955Z,7.00
2022-11-28T12:07:51.224Z,6.90
2022-11-28T12:10:23.347Z,6.80
2022-11-28T12:12:51.597Z,6.80
2022-11-28T12:15:26.931Z,6.70
2022-11-28T12:18:14.133Z,6.70
2022-11-28T12:20:55.529Z,6.60
2022-11-28T12:23:59.239Z,6.50
2022-11-28T12:26:34.733Z,6.50
2022-11-28T12:31:54.654Z,6.50
2022-11-28T12:34:33.531Z,6.50
2022-11-28T12:37:10.870Z,6.50
2022-11-28T12:39:50.198Z,6.50
2022-11-28T12:42:30.514Z,6.50
2022-11-28T12:45:20.693Z,6.50
2022-11-28T12:47:56.461Z,6.40
2022-11-28T12:50:33.029Z,6.30
2022-11-28T12:53:22.564Z,6.30
2022-11-28T12:55:59.934Z,6.30
2022-11-28T12:58:31.799Z,6.30
2022-11-28T13:01:08.242Z,6.30
2022-11-28T13:03:43.675Z,6.30
2022-11-28T13:06:23.809Z,6.30
2022-11-28T13:09:09.797Z,6.20
2022-11-28T13:11:48.261Z,6.20
2022-11-28T13:14:25.313Z,6.20
2022-11-28T13:16:57.605Z,6.10
2022-11-28T13:19:39.054Z,6.10
2022-11-28T13:22:15.102Z,6.10
2022-11-28T13:24:54.001Z,6.10
2022-11-28T13:27:32.556Z,6.10
2022-11-28T13:30:13.277Z,6.00
2022-11-28T13:32:46.541Z,6.00
2022-11-28T13:35:16.470Z,6.00
2022-11-28T13:40:44.835Z,5.90
2022-11-28T13:43:18.122Z,5.90
2022-11-28T13:51:41.620Z,5.80
2022-11-28T13:54:37.188Z,5.80
2022-11-28T13:57:18.994Z,5.80
2022-11-28T13:59:53.488Z,5.70
2022-11-28T14:02:27.322Z,5.70
2022-11-28T14:04:55.420Z,5.70
2022-11-28T14:07:32.895Z,5.70
2022-11-28T14:10:15.577Z,5.60
2022-11-28T14:12:53.480Z,5.60
2022-11-28T14:15:29.600Z,5.50
2022-11-28T14:18:39.104Z,5.50
2022-11-28T14:21:05.555Z,5.50
2022-11-28T14:23:42.003Z,5.40
2022-11-28T14:26:15.601Z,5.40
2022-11-28T14:28:46.261Z,5.40
2022-11-28T14:31:26.348Z,5.40
2022-11-28T14:33:59.373Z,5.40
2022-11-28T14:36:29.681Z,5.40
2022-11-28T14:39:12.118Z,5.40
2022-11-28T14:42:51.813Z,5.30
2022-11-28T14:45:41.848Z,5.30
2022-11-28T14:48:29.318Z,5.20
2022-11-28T14:51:01.818Z,5.20
2022-11-28T14:53:45.399Z,5.20
2022-11-28T14:56:26.660Z,5.20
2022-11-28T14:58:58.933Z,5.20
2022-11-28T15:01:44.888Z,5.20
2022-11-28T15:04:37.406Z,5.20
2022-11-28T15:07:12.000Z,5.20
2022-11-28T15:09:46.748Z,5.10
2022-11-28T15:12:24.516Z,5.10
2022-11-28T15:14:58.974Z,5.10
2022-11-28T15:17:30.859Z,5.10
2022-11-28T15:20:00.220Z,5.10
2022-11-28T15:22:33.188Z,5.00
2022-11-28T15:25:01.122Z,5.00
2022-11-28T15:27:29.343Z,5.00
2022-11-28T15:29:59.137Z,5.00
2022-11-28T15:32:30.871Z,4.90
2022-11-28T15:35:01.712Z,4.90
2022-11-28T15:37:31.947Z,5.00
2022-11-28T15:40:01.721Z,4.90
2022-11-28T15:42:31.704Z,4.90
2022-11-28T15:45:01.300Z,4.90
2022-11-28T15:47:31.028Z,4.90
2022-11-28T15:50:05.513Z,4.90
2022-11-28T15:52:33.537Z,4.90
2022-11-28T15:55:01.674Z,4.90
2022-11-28T15:57:32.530Z,4.90
2022-11-28T16:00:02.986Z,4.90
2022-11-28T16:02:35.613Z,4.80
2022-11-28T16:05:08.812Z,4.80
2022-11-28T16:07:40.973Z,4.80
2022-11-28T16:10:22.061Z,4.80
2022-11-28T16:12:50.585Z,4.80
2022-11-28T16:15:20.069Z,4.80
2022-11-28T16:17:49.810Z,4.80
2022-11-28T16:20:24.023Z,4.80
2022-11-28T16:22:57.182Z,4.80
2022-11-28T16:25:26.810Z,4.70
2022-11-28T16:27:57.371Z,4.70
2022-11-28T16:30:34.659Z,4.70
2022-11-28T16:33:25.097Z,4.70
2022-11-28T16:35:53.125Z,4.70
2022-11-28T16:38:24.289Z,4.70
2022-11-28T16:40:53.079Z,4.70
2022-11-28T16:43:25.097Z,4.70
2022-11-28T16:46:00.043Z,4.70
2022-11-28T16:48:31.941Z,4.70
2022-11-28T16:51:32.636Z,4.60
2022-11-28T16:54:01.683Z,4.60
2022-11-28T16:56:44.923Z,4.60
2022-11-28T16:59:14.790Z,4.60
2022-11-28T17:01:43.998Z,4.60
2022-11-28T17:04:22.414Z,4.50
2022-11-28T17:06:50.946Z,4.60
2022-11-28T17:09:19.123Z,4.50
2022-11-28T17:11:51.729Z,4.60
2022-11-28T17:14:19.622Z,4.60
2022-11-28T17:16:47.599Z,4.50
2022-11-28T17:19:15.631Z,4.60
2022-11-28T17:21:47.835Z,4.60
2022-11-28T17:24:19.038Z,4.60
2022-11-28T17:26:47.255Z,4.50
2022-11-28T17:29:17.020Z,4.50
2022-11-28T17:31:46.823Z,4.50
2022-11-28T17:34:16.945Z,4.50
2022-11-28T17:36:46.477Z,4.50
2022-11-28T17:39:14.737Z,4.50
2022-11-28T17:41:43.288Z,4.50
2022-11-28T17:44:17.667Z,4.50
2022-11-28T17:46:45.621Z,4.50
2022-11-28T17:49:14.041Z,4.40
2022-11-28T17:51:42.217Z,4.40
2022-11-28T17:54:16.226Z,4.40
2022-11-28T17:56:44.347Z,4.40
2022-11-28T17:59:13.187Z,4.40
2022-11-28T18:01:41.152Z,4.40
2022-11-28T18:04:09.611Z,4.40
2022-11-28T18:06:37.854Z,4.40
2022-11-28T18:09:11.888Z,4.40
2022-11-28T18:11:41.642Z,4.30
2022-11-28T18:14:09.596Z,4.30
2022-11-28T18:16:39.651Z,4.30
2022-11-28T18:19:07.646Z,4.30
2022-11-28T18:21:35.582Z,4.40
2022-11-28T18:24:04.657Z,4.30
2022-11-28T18:26:32.620Z,4.30
2022-11-28T18:29:01.920Z,4.30
2022-11-28T18:31:30.859Z,4.30
2022-11-28T18:34:03.137Z,4.30
2022-11-28T18:36:33.463Z,4.30
2022-11-28T18:39:03.991Z,4.30
2022-11-28T18:41:32.486Z,4.30
2022-11-28T18:44:03.425Z,4.30
2022-11-28T18:46:32.360Z,4.30
2022-11-28T18:49:00.364Z,4.30
2022-11-28T18:51:30.129Z,4.30
2022-11-28T18:53:58.633Z,4.30
2022-11-28T18:56:29.321Z,4.30
2022-11-28T18:58:58.536Z,4.30
2022-11-28T19:01:30.435Z,4.30
2022-11-28T19:04:00.800Z,4.30
2022-11-28T19:06:29.384Z,4.30
2022-11-28T19:08:59.535Z,4.30
2022-11-28T19:11:28.621Z,4.30
2022-11-28T19:13:57.032Z,4.20
2022-11-28T19:16:27.957Z,4.20
2022-11-28T19:18:56.298Z,4.20
2022-11-28T19:21:25.655Z,4.20
2022-11-28T19:23:55.063Z,4.20
2022-11-28T19:26:24.607Z,4.30
2022-11-28T19:28:53.015Z,4.20
2022-11-28T19:31:22.886Z,4.20
2022-11-28T19:34:01.176Z,4.20
2022-11-28T19:36:29.951Z,4.20
2022-11-28T19:38:58.406Z,4.20
2022-11-28T19:41:26.595Z,4.20
2022-11-28T19:43:54.500Z,4.20
2022-11-28T19:46:22.415Z,4.20
2022-11-28T19:48:51.701Z,4.20
2022-11-28T19:51:21.219Z,4.20
2022-11-28T19:53:49.163Z,4.20
2022-11-28T19:56:19.253Z,4.20
2022-11-28T19:58:47.580Z,4.10
2022-11-28T20:01:17.504Z,4.10
2022-11-28T20:03:47.620Z,4.10
2022-11-28T20:06:18.115Z,4.10
2022-11-28T20:08:47.899Z,4.10
2022-11-28T20:11:17.560Z,4.10
2022-11-28T20:13:46.503Z,4.10
2022-11-28T20:16:16.573Z,4.10
2022-11-28T20:18:45.351Z,4.10
2022-11-28T20:21:15.494Z,4.10
2022-11-28T20:23:45.146Z,4.10
2022-11-28T20:26:15.770Z,4.10
2022-11-28T20:28:44.659Z,4.10
2022-11-28T20:31:19.712Z,4.10
2022-11-28T20:33:48.450Z,4.10
2022-11-28T20:36:18.221Z,4.00
2022-11-28T20:38:46.482Z,4.00
2022-11-28T20:41:17.130Z,4.10
2022-11-28T20:43:45.463Z,4.00
2022-11-28T20:46:15.728Z,4.00
2022-11-28T20:48:43.830Z,4.00
2022-11-28T20:51:13.742Z,4.00
2022-11-28T20:53:41.982Z,4.00
2022-11-28T20:56:13.444Z,4.00
2022-11-28T20:58:43.242Z,4.00
2022-11-28T21:01:15.322Z,4.00
2022-11-28T21:03:43.558Z,4.00
2022-11-28T21:06:11.767Z,4.00
2022-11-28T21:08:40.418Z,4.00
2022-11-28T21:11:09.946Z,4.00
2022-11-28T21:13:37.878Z,4.00
2022-11-28T21:16:08.750Z,4.00
2022-11-28T21:18:37.977Z,4.00
2022-11-28T21:21:08.973Z,4.00
2022-11-28T21:23:37.226Z,4.00
2022-11-28T21:26:07.006Z,4.00
2022-11-28T21:28:37.117Z,4.00
2022-11-28T21:31:08.233Z,4.00
2022-11-28T21:33:36.386Z,4.00
2022-11-28T21:36:05.905Z,4.00
2022-11-28T21:38:34.321Z,4.00
2022-11-28T21:41:02.664Z,4.00
2022-11-28T21:43:30.697Z,4.00
2022-11-28T21:46:03.143Z,4.00
2022-11-28T21:48:33.673Z,4.00
2022-11-28T21:51:02.530Z,3.90
2022-11-28T21:53:30.973Z,3.90
2022-11-28T21:56:01.197Z,3.90
2022-11-28T21:58:30.661Z,3.90
2022-11-28T22:00:59.500Z,3.90
2022-11-28T22:03:28.365Z,3.90
2022-11-28T22:06:02.652Z,3.90
2022-11-28T22:08:31.205Z,3.90
2022-11-28T22:11:01.099Z,3.80
2022-11-28T22:13:29.367Z,3.90
2022-11-28T22:15:57.334Z,3.90
2022-11-28T22:18:25.368Z,3.80
2022-11-28T22:20:53.371Z,3.80
2022-11-28T22:23:22.616Z,3.80
2022-11-28T22:25:53.617Z,3.80
2022-11-28T22:28:21.816Z,3.80
2022-11-28T22:30:49.740Z,3.70
2022-11-28T22:33:18.468Z,3.70
2022-11-28T22:35:46.528Z,3.70
2022-11-28T22:38:14.720Z,3.70
2022-11-28T22:40:44.007Z,3.70
2022-11-28T22:43:12.308Z,3.80
2022-11-28T22:45:40.275Z,3.70
2022-11-28T22:48:08.301Z,3.80
2022-11-28T22:50:40.238Z,3.80
2022-11-28T22:53:08.285Z,3.80
2022-11-28T22:55:36.493Z,3.80
2022-11-28T22:58:05.824Z,3.80
2022-11-28T23:00:33.735Z,3.80
2022-11-28T23:03:01.838Z,3.80
2022-11-28T23:05:29.841Z,3.80
2022-11-28T23:07:57.824Z,3.80
2022-11-28T23:10:25.798Z,3.90
2022-11-28T23:12:53.862Z,3.90
2022-11-28T23:15:23.296Z,3.90
2022-11-28T23:17:51.302Z,3.90
2022-11-28T23:20:19.315Z,3.90
2022-11-28T23:22:47.246Z,3.90
2022-11-28T23:25:15.369Z,3.90
2022-11-28T23:27:43.304Z,3.90
2022-11-28T23:30:11.819Z,3.90
2022-11-28T23:32:41.071Z,3.90
2022-11-28T23:35:09.582Z,3.90
2022-11-28T23:37:39.407Z,3.90
2022-11-28T23:40:08.649Z,3.90
2022-11-28T23:42:36.562Z,3.90
2022-11-28T23:45:04.959Z,3.90
2022-11-28T23:47:32.838Z,3.90
2022-11-28T23:50:02.062Z,3.90
2022-11-28T23:52:29.940Z,3.90
2022-11-28T23:54:57.818Z,3.90
2022-11-28T23:57:25.703Z,3.90
2022-11-28T23:59:53.587Z,3.90
